createdAt,value
2019-02-18T00:01:25.400Z,67.07
2019-02-18T00:03:56.930Z,67.13
2019-02-18T00:06:28.509Z,67.10
2019-02-18T00:09:00.019Z,66.64
2019-02-18T00:11:31.624Z,66.48
2019-02-18T00:14:03.126Z,66.42
2019-02-18T00:16:34.660Z,66.83
2019-02-18T00:19:06.191Z,66.66
2019-02-18T00:21:38.773Z,66.82
2019-02-18T00:24:10.297Z,67.02
2019-02-18T00:26:41.811Z,67.62
2019-02-18T00:29:13.342Z,67.38
2019-02-18T00:31:44.862Z,67.64
2019-02-18T00:34:16.467Z,67.55
2019-02-18T00:36:47.989Z,67.31
2019-02-18T00:39:19.554Z,66.96
2019-02-18T00:41:51.074Z,66.97
2019-02-18T00:44:22.584Z,66.68
2019-02-18T00:46:55.180Z,66.48
2019-02-18T00:49:26.714Z,66.90
2019-02-18T00:51:58.230Z,66.84
2019-02-18T00:54:29.739Z,66.58
2019-02-18T00:57:01.279Z,67.10
2019-02-18T00:59:32.869Z,66.90
2019-02-18T01:02:04.384Z,66.74
2019-02-18T01:04:35.924Z,67.12
2019-02-18T01:07:07.449Z,67.45
2019-02-18T01:09:39.023Z,67.65
2019-02-18T01:12:10.530Z,68.15
2019-02-18T01:14:42.064Z,68.76
2019-02-18T01:17:13.668Z,69.46
2019-02-18T01:19:45.254Z,69.23
2019-02-18T01:22:16.779Z,68.44
2019-02-18T01:24:48.302Z,67.68
2019-02-18T01:27:19.852Z,67.86
2019-02-18T01:29:51.351Z,67.45
2019-02-18T01:32:22.866Z,67.52
2019-02-18T01:34:54.365Z,67.23
2019-02-18T01:37:25.951Z,67.42
2019-02-18T01:39:57.456Z,67.74
2019-02-18T01:42:28.971Z,67.68
2019-02-18T01:45:00.493Z,67.47
2019-02-18T01:47:32.145Z,67.40
2019-02-18T01:50:04.034Z,67.17
2019-02-18T01:52:35.600Z,66.99
2019-02-18T01:55:08.222Z,67.92
2019-02-18T01:57:39.793Z,70.51
2019-02-18T02:00:16.396Z,71.13
2019-02-18T02:02:47.907Z,69.41
2019-02-18T02:05:19.448Z,68.40
2019-02-18T02:07:56.384Z,68.58
2019-02-18T02:10:24.248Z,69.23
2019-02-18T02:13:25.894Z,69.12
2019-02-18T02:15:58.736Z,68.40
2019-02-18T02:18:30.262Z,67.46
2019-02-18T02:21:01.816Z,66.95
2019-02-18T02:23:33.367Z,66.53
2019-02-18T02:26:04.899Z,66.28
2019-02-18T02:28:36.404Z,66.83
2019-02-18T02:31:08.080Z,67.36
2019-02-18T02:33:39.577Z,67.38
2019-02-18T02:36:11.260Z,67.33
2019-02-18T02:38:42.743Z,67.51
2019-02-18T02:41:14.263Z,67.27
2019-02-18T02:43:45.779Z,67.22
2019-02-18T02:46:17.275Z,67.14
2019-02-18T02:48:48.866Z,67.19
2019-02-18T02:51:20.397Z,67.76
2019-02-18T02:53:51.910Z,68.10
2019-02-18T02:56:23.427Z,68.34
2019-02-18T02:58:54.937Z,68.75
2019-02-18T03:01:26.452Z,69.77
2019-02-18T03:03:58.028Z,69.83
2019-02-18T03:06:29.551Z,69.48
2019-02-18T03:09:01.071Z,68.77
2019-02-18T03:11:33.861Z,68.55
2019-02-18T03:14:05.377Z,68.38
2019-02-18T03:16:36.968Z,68.31
2019-02-18T03:19:09.556Z,68.37
2019-02-18T03:21:41.059Z,68.15
2019-02-18T03:24:12.558Z,67.61
2019-02-18T03:26:44.109Z,67.05
2019-02-18T03:29:53.523Z,66.89
2019-02-18T03:32:25.106Z,66.82
2019-02-18T03:34:56.620Z,67.30
2019-02-18T03:37:28.149Z,67.50
2019-02-18T03:39:59.671Z,67.23
2019-02-18T03:42:31.174Z,67.50
2019-02-18T03:45:02.704Z,67.61
2019-02-18T03:47:34.216Z,67.68
2019-02-18T03:50:05.811Z,68.00
2019-02-18T03:52:37.493Z,68.02
2019-02-18T03:55:10.624Z,67.79
2019-02-18T03:57:42.137Z,67.48
2019-02-18T04:00:14.131Z,67.37
2019-02-18T04:02:45.653Z,67.19
2019-02-18T04:05:17.167Z,67.09
2019-02-18T04:07:48.674Z,66.91
2019-02-18T04:10:20.259Z,66.85
2019-02-18T04:12:51.920Z,67.08
2019-02-18T04:15:23.488Z,67.18
2019-02-18T04:17:54.984Z,67.56
2019-02-18T04:20:26.498Z,67.26
2019-02-18T04:22:58.000Z,66.99
2019-02-18T04:25:29.530Z,66.67
2019-02-18T04:28:01.047Z,66.95
2019-02-18T04:30:32.645Z,67.21
2019-02-18T04:33:04.134Z,67.44
2019-02-18T04:35:35.701Z,68.13
2019-02-18T04:38:07.251Z,68.05
2019-02-18T04:40:38.748Z,67.63
2019-02-18T04:43:10.276Z,67.25
2019-02-18T04:45:41.789Z,66.98
2019-02-18T04:48:13.308Z,66.82
2019-02-18T04:50:44.904Z,66.67
2019-02-18T04:53:16.388Z,66.87
2019-02-18T04:55:47.883Z,66.82
2019-02-18T04:58:19.382Z,66.99
2019-02-18T05:00:50.884Z,66.71
2019-02-18T05:03:22.402Z,66.96
2019-02-18T05:05:53.937Z,67.18
2019-02-18T05:08:25.451Z,67.09
2019-02-18T05:10:56.996Z,67.08
2019-02-18T05:13:28.518Z,67.01
2019-02-18T05:16:00.118Z,66.78
2019-02-18T05:18:31.611Z,66.92
2019-02-18T05:21:03.205Z,67.08
2019-02-18T05:23:34.727Z,67.04
2019-02-18T05:26:06.249Z,66.79
2019-02-18T05:28:37.777Z,67.13
2019-02-18T05:31:09.290Z,67.00
2019-02-18T05:33:40.857Z,67.28
2019-02-18T05:36:12.372Z,67.35
2019-02-18T05:38:43.886Z,67.43
2019-02-18T05:41:15.374Z,67.60
2019-02-18T05:43:46.970Z,67.87
2019-02-18T05:46:19.565Z,67.70
2019-02-18T05:48:52.081Z,67.80
2019-02-18T05:51:23.684Z,67.68
2019-02-18T05:53:55.199Z,67.10
2019-02-18T05:56:26.801Z,66.88
2019-02-18T05:58:58.357Z,67.04
2019-02-18T06:01:29.886Z,66.85
2019-02-18T06:04:01.398Z,66.92
2019-02-18T06:06:32.973Z,67.12
2019-02-18T06:09:04.643Z,67.09
2019-02-18T06:11:36.161Z,67.12
2019-02-18T06:14:07.688Z,67.28
2019-02-18T06:16:39.199Z,67.42
2019-02-18T06:19:10.789Z,67.29
2019-02-18T06:21:42.312Z,67.15
2019-02-18T06:24:13.949Z,67.02
2019-02-18T06:26:45.532Z,66.69
2019-02-18T06:29:17.046Z,66.42
2019-02-18T06:31:48.565Z,66.26
2019-02-18T06:34:20.088Z,66.72
2019-02-18T06:36:51.603Z,66.95
2019-02-18T06:39:23.184Z,67.21
2019-02-18T06:41:54.699Z,67.04
2019-02-18T06:44:27.846Z,67.32
2019-02-18T06:47:01.012Z,67.45
2019-02-18T06:49:32.706Z,67.75
2019-02-18T06:52:04.209Z,67.69
2019-02-18T06:54:35.709Z,67.24
2019-02-18T06:57:08.852Z,66.74
2019-02-18T06:59:42.044Z,66.45
2019-02-18T07:02:31.320Z,65.91
2019-02-18T07:05:04.478Z,66.08
2019-02-18T07:07:37.666Z,66.26
2019-02-18T07:10:11.697Z,66.31
2019-02-18T07:12:44.867Z,66.50
2019-02-18T07:15:16.378Z,66.94
2019-02-18T07:17:47.898Z,67.25
2019-02-18T07:20:19.467Z,67.00
2019-02-18T07:22:50.968Z,67.04
2019-02-18T07:25:22.590Z,67.17
2019-02-18T07:27:54.242Z,67.18
2019-02-18T07:30:25.779Z,66.53
2019-02-18T07:32:57.282Z,65.79
2019-02-18T07:35:28.969Z,65.76
2019-02-18T07:38:00.566Z,66.33
2019-02-18T07:40:32.108Z,66.64
2019-02-18T07:43:03.702Z,66.31
2019-02-18T07:45:36.316Z,66.10
2019-02-18T07:48:07.841Z,66.20
2019-02-18T07:50:40.428Z,66.57
2019-02-18T07:53:11.947Z,66.34
2019-02-18T07:55:43.566Z,65.78
2019-02-18T07:58:15.089Z,65.74
2019-02-18T08:00:46.594Z,65.38
2019-02-18T08:03:18.153Z,64.94
2019-02-18T08:05:49.653Z,65.22
2019-02-18T08:08:21.205Z,64.73
2019-02-18T08:10:52.744Z,64.30
2019-02-18T08:13:26.702Z,63.92
2019-02-18T08:15:57.611Z,63.77
2019-02-18T08:18:29.219Z,63.41
2019-02-18T08:21:00.748Z,63.49
2019-02-18T08:23:32.247Z,63.15
2019-02-18T08:26:04.050Z,62.33
2019-02-18T08:28:35.552Z,62.04
2019-02-18T08:31:07.154Z,61.72
2019-02-18T08:33:38.673Z,61.60
2019-02-18T08:36:10.214Z,61.23
2019-02-18T08:38:41.715Z,60.85
2019-02-18T08:41:13.217Z,60.80
2019-02-18T08:43:44.732Z,60.89
2019-02-18T08:46:16.274Z,60.65
2019-02-18T08:48:47.928Z,60.37
2019-02-18T08:51:19.422Z,59.79
2019-02-18T08:53:50.970Z,59.68
2019-02-18T08:56:22.614Z,59.50
2019-02-18T08:58:54.146Z,58.81
2019-02-18T09:01:25.670Z,58.55
2019-02-18T09:03:57.252Z,57.98
2019-02-18T09:06:28.768Z,58.08
2019-02-18T09:09:00.271Z,58.78
2019-02-18T09:11:31.962Z,58.65
2019-02-18T09:14:03.467Z,58.32
2019-02-18T09:16:34.992Z,57.68
2019-02-18T09:19:06.513Z,57.21
2019-02-18T09:21:38.180Z,57.31
2019-02-18T09:24:20.197Z,57.34
2019-02-18T09:26:51.717Z,57.12
2019-02-18T09:29:23.238Z,57.88
2019-02-18T09:31:54.768Z,57.15
2019-02-18T09:34:26.282Z,57.41
2019-02-18T09:36:57.787Z,56.86
2019-02-18T09:39:31.470Z,56.69
2019-02-18T09:42:03.007Z,56.12
2019-02-18T09:44:34.487Z,55.83
2019-02-18T09:47:06.007Z,56.38
2019-02-18T09:49:37.530Z,56.05
2019-02-18T09:52:09.062Z,55.59
2019-02-18T09:54:40.599Z,54.91
2019-02-18T09:57:12.191Z,55.01
2019-02-18T09:59:43.920Z,54.74
2019-02-18T10:02:15.467Z,54.70
2019-02-18T10:04:46.974Z,54.59
2019-02-18T10:07:18.482Z,53.97
2019-02-18T10:09:50.067Z,53.96
2019-02-18T10:12:21.593Z,53.37
2019-02-18T10:14:53.139Z,52.76
2019-02-18T10:17:25.258Z,52.61
2019-02-18T10:19:56.790Z,52.52
2019-02-18T10:22:28.327Z,52.45
2019-02-18T10:25:00.057Z,52.91
2019-02-18T10:27:31.734Z,52.58
2019-02-18T10:30:03.236Z,52.45
2019-02-18T10:32:34.850Z,52.57
2019-02-18T10:35:10.605Z,52.38
2019-02-18T10:37:42.127Z,52.23
2019-02-18T10:40:13.631Z,51.64
2019-02-18T10:42:45.161Z,51.94
2019-02-18T10:45:16.690Z,51.89
2019-02-18T10:47:48.277Z,51.97
2019-02-18T10:50:19.861Z,51.67
2019-02-18T10:52:51.383Z,51.36
2019-02-18T10:55:23.194Z,51.47
2019-02-18T10:57:54.787Z,51.22
2019-02-18T11:00:27.389Z,51.00
2019-02-18T11:02:58.929Z,51.16
2019-02-18T11:05:30.529Z,50.96
2019-02-18T11:08:02.315Z,50.89
2019-02-18T11:10:33.848Z,51.07
2019-02-18T11:13:05.354Z,50.69
2019-02-18T11:15:36.863Z,50.14
2019-02-18T11:18:08.390Z,49.89
2019-02-18T11:20:39.921Z,49.68
2019-02-18T11:23:11.512Z,49.25
2019-02-18T11:25:43.036Z,48.95
2019-02-18T11:28:14.592Z,49.14
2019-02-18T11:30:46.148Z,49.27
2019-02-18T11:33:17.675Z,49.38
2019-02-18T11:35:49.209Z,49.42
2019-02-18T11:38:20.990Z,49.49
2019-02-18T11:40:52.586Z,48.90
2019-02-18T11:43:24.115Z,48.70
2019-02-18T11:45:55.715Z,48.24
2019-02-18T11:48:27.260Z,47.87
2019-02-18T11:50:58.784Z,47.56
2019-02-18T11:53:30.383Z,47.24
2019-02-18T11:56:01.977Z,47.36
2019-02-18T11:58:33.520Z,47.59
2019-02-18T12:01:05.294Z,47.27
2019-02-18T12:03:36.970Z,47.00
2019-02-18T12:06:09.618Z,46.82
2019-02-18T12:08:42.323Z,46.77
2019-02-18T12:11:13.925Z,47.02
2019-02-18T12:13:45.476Z,47.12
2019-02-18T12:16:16.976Z,47.10
2019-02-18T12:18:48.517Z,47.04
2019-02-18T12:21:20.048Z,47.02
2019-02-18T12:23:51.650Z,46.75
2019-02-18T12:26:23.304Z,46.42
2019-02-18T12:28:55.063Z,46.50
2019-02-18T12:31:26.565Z,46.39
2019-02-18T12:33:58.080Z,46.71
2019-02-18T12:36:29.604Z,46.44
2019-02-18T12:39:01.218Z,46.29
2019-02-18T12:41:34.529Z,46.04
2019-02-18T12:44:06.093Z,45.89
2019-02-18T12:46:37.670Z,45.82
2019-02-18T12:49:10.257Z,45.77
2019-02-18T12:51:41.753Z,45.63
2019-02-18T12:54:13.371Z,45.38
2019-02-18T12:56:44.948Z,44.99
2019-02-18T12:59:16.550Z,45.15
2019-02-18T13:01:48.140Z,45.19
2019-02-18T13:04:19.690Z,45.22
2019-02-18T13:06:51.242Z,45.71
2019-02-18T13:09:22.745Z,45.41
2019-02-18T13:11:58.995Z,45.78
2019-02-18T13:14:27.541Z,45.07
2019-02-18T13:16:59.092Z,45.29
2019-02-18T13:19:31.812Z,45.03
2019-02-18T13:22:03.760Z,45.35
2019-02-18T13:24:36.755Z,45.12
2019-02-18T13:27:08.469Z,44.84
2019-02-18T13:29:40.001Z,44.88
2019-02-18T13:32:11.527Z,45.06
2019-02-18T13:34:43.514Z,45.05
2019-02-18T13:37:15.023Z,45.26
2019-02-18T13:39:46.580Z,45.25
2019-02-18T13:42:18.246Z,45.30
2019-02-18T13:44:49.762Z,45.20
2019-02-18T13:47:21.817Z,45.15
2019-02-18T13:49:53.318Z,44.93
2019-02-18T13:52:25.042Z,44.70
2019-02-18T13:54:57.721Z,44.66
2019-02-18T13:57:29.220Z,44.57
2019-02-18T14:00:01.198Z,44.67
2019-02-18T14:02:34.306Z,44.50
2019-02-18T14:05:07.918Z,43.77
2019-02-18T14:07:39.419Z,43.39
2019-02-18T14:10:11.010Z,43.42
2019-02-18T14:12:42.855Z,43.32
2019-02-18T14:15:15.674Z,43.25
2019-02-18T14:17:47.177Z,43.05
2019-02-18T14:20:19.163Z,43.12
2019-02-18T14:22:50.669Z,43.14
2019-02-18T14:25:22.278Z,42.94
2019-02-18T14:27:54.935Z,42.65
2019-02-18T14:30:26.455Z,42.37
2019-02-18T14:32:58.130Z,42.21
2019-02-18T14:35:29.632Z,42.26
2019-02-18T14:38:01.167Z,42.13
2019-02-18T14:40:32.804Z,42.15
2019-02-18T14:43:04.340Z,42.25
2019-02-18T14:45:35.909Z,41.59
2019-02-18T14:48:07.735Z,39.69
2019-02-18T14:50:39.330Z,38.42
2019-02-18T14:53:10.861Z,37.87
2019-02-18T14:55:42.371Z,37.88
2019-02-18T14:58:13.970Z,37.59
2019-02-18T15:00:45.492Z,37.50
2019-02-18T15:03:17.016Z,37.54
2019-02-18T15:05:48.542Z,37.45
2019-02-18T15:08:20.044Z,37.70
2019-02-18T15:10:51.586Z,37.68
2019-02-18T15:13:23.091Z,37.76
2019-02-18T15:15:54.616Z,37.81
2019-02-18T15:18:26.159Z,37.85
2019-02-18T15:20:57.770Z,37.96
2019-02-18T15:23:29.315Z,38.08
2019-02-18T15:26:00.889Z,38.25
2019-02-18T15:28:32.414Z,38.39
2019-02-18T15:31:04.009Z,38.51
2019-02-18T15:33:35.544Z,38.66
2019-02-18T15:36:07.123Z,38.80
2019-02-18T15:38:38.658Z,38.91
2019-02-18T15:41:10.163Z,39.02
2019-02-18T15:43:41.757Z,39.18
2019-02-18T15:46:13.281Z,39.31
2019-02-18T15:48:44.809Z,39.48
2019-02-18T15:51:16.329Z,39.69
2019-02-18T15:53:47.926Z,39.79
2019-02-18T15:56:19.429Z,39.99
2019-02-18T15:58:50.974Z,40.14
2019-02-18T16:01:22.535Z,40.27
2019-02-18T16:03:54.288Z,40.50
2019-02-18T16:06:25.850Z,40.73
2019-02-18T16:08:57.410Z,40.95
2019-02-18T16:11:28.946Z,41.24
2019-02-18T16:14:00.468Z,41.43
2019-02-18T16:16:31.975Z,41.58
2019-02-18T16:19:03.489Z,41.72
2019-02-18T16:21:35.077Z,41.91
2019-02-18T16:24:06.732Z,42.14
2019-02-18T16:26:38.248Z,42.43
2019-02-18T16:29:09.792Z,42.64
2019-02-18T16:31:41.332Z,42.87
2019-02-18T16:34:13.231Z,43.06
2019-02-18T16:36:45.880Z,43.22
2019-02-18T16:39:19.707Z,43.37
2019-02-18T16:41:51.243Z,43.62
2019-02-18T16:44:23.794Z,43.91
2019-02-18T16:46:55.321Z,44.25
2019-02-18T16:49:26.877Z,44.59
2019-02-18T16:51:58.410Z,44.99
2019-02-18T16:54:30.270Z,45.76
2019-02-18T16:57:01.803Z,46.28
2019-02-18T16:59:33.329Z,46.60
2019-02-18T17:02:04.855Z,46.92
2019-02-18T17:04:36.382Z,47.57
2019-02-18T17:07:08.245Z,47.85
2019-02-18T17:09:39.873Z,47.98
2019-02-18T17:12:11.405Z,48.38
2019-02-18T17:14:42.993Z,48.58
2019-02-18T17:17:14.522Z,48.79
2019-02-18T17:19:47.302Z,48.99
2019-02-18T17:22:18.805Z,49.10
2019-02-18T17:24:50.314Z,49.27
2019-02-18T17:27:21.851Z,49.50
2019-02-18T17:29:53.379Z,49.57
2019-02-18T17:32:25.280Z,49.73
2019-02-18T17:34:56.797Z,49.97
2019-02-18T17:37:28.338Z,50.19
2019-02-18T17:39:59.914Z,50.38
2019-02-18T17:42:31.809Z,50.60
2019-02-18T17:45:21.414Z,50.87
2019-02-18T17:47:59.931Z,51.19
2019-02-18T17:50:36.391Z,51.40
2019-02-18T17:55:49.573Z,51.74
2019-02-18T17:58:47.596Z,52.00
2019-02-18T18:01:35.254Z,52.47
2019-02-18T18:06:58.597Z,53.34
2019-02-18T18:09:38.939Z,53.46
2019-02-18T18:12:21.975Z,53.71
2019-02-18T18:15:12.053Z,54.08
2019-02-18T18:17:46.637Z,54.35
2019-02-18T18:20:18.295Z,54.92
2019-02-18T18:22:49.926Z,54.91
2019-02-18T18:25:22.840Z,55.20
2019-02-18T18:27:54.819Z,55.43
2019-02-18T18:30:26.548Z,55.64
2019-02-18T18:32:58.273Z,55.80
2019-02-18T18:35:36.755Z,55.97
2019-02-18T18:38:08.272Z,56.03
2019-02-18T18:40:39.814Z,56.56
2019-02-18T18:43:11.357Z,56.79
2019-02-18T18:45:42.955Z,57.00
2019-02-18T18:48:15.015Z,57.23
2019-02-18T18:50:46.642Z,57.43
2019-02-18T18:53:18.160Z,57.64
2019-02-18T18:55:49.685Z,57.74
2019-02-18T18:58:21.305Z,57.81
2019-02-18T19:00:52.912Z,57.97
2019-02-18T19:03:24.485Z,58.35
2019-02-18T19:05:56.224Z,58.79
2019-02-18T19:08:27.769Z,59.00
2019-02-18T19:10:59.651Z,59.07
2019-02-18T19:13:31.278Z,59.33
2019-02-18T19:16:02.977Z,59.49
2019-02-18T19:18:34.504Z,59.63
2019-02-18T19:21:06.561Z,59.83
2019-02-18T19:23:38.355Z,59.97
2019-02-18T19:26:10.422Z,60.14
2019-02-18T19:28:52.775Z,60.19
2019-02-18T19:34:45.282Z,60.41
2019-02-18T19:37:16.957Z,60.97
2019-02-18T19:39:48.618Z,60.68
2019-02-18T19:42:20.604Z,60.97
2019-02-18T19:44:52.833Z,61.40
2019-02-18T19:47:24.461Z,61.80
2019-02-18T19:49:56.088Z,62.09
2019-02-18T19:52:27.831Z,61.64
2019-02-18T19:54:59.519Z,61.35
2019-02-18T19:57:31.093Z,61.27
2019-02-18T20:00:03.181Z,61.33
2019-02-18T20:02:36.286Z,61.57
2019-02-18T20:05:10.094Z,61.74
2019-02-18T20:07:41.631Z,62.07
2019-02-18T20:10:13.775Z,62.17
2019-02-18T20:12:45.539Z,62.17
2019-02-18T20:15:20.809Z,62.23
2019-02-18T20:17:52.370Z,62.37
2019-02-18T20:20:24.024Z,62.36
2019-02-18T20:22:55.557Z,62.27
2019-02-18T20:25:27.170Z,62.37
2019-02-18T20:27:58.713Z,62.37
2019-02-18T20:30:30.332Z,62.42
2019-02-18T20:33:01.931Z,62.38
2019-02-18T20:35:33.480Z,62.44
2019-02-18T20:38:05.426Z,62.57
2019-02-18T20:40:38.191Z,62.45
2019-02-18T20:43:09.895Z,62.53
2019-02-18T20:45:44.302Z,62.62
2019-02-18T20:48:18.372Z,63.00
2019-02-18T20:50:50.030Z,63.18
2019-02-18T20:53:21.592Z,63.21
2019-02-18T20:55:53.211Z,63.18
2019-02-18T20:58:24.787Z,63.30
2019-02-18T21:00:56.466Z,63.52
2019-02-18T21:03:28.101Z,63.62
2019-02-18T21:05:59.786Z,63.75
2019-02-18T21:08:32.353Z,63.78
2019-02-18T21:11:03.896Z,63.77
2019-02-18T21:13:35.450Z,63.55
2019-02-18T21:16:06.983Z,63.21
2019-02-18T21:18:39.823Z,63.46
2019-02-18T21:21:11.422Z,63.54
2019-02-18T21:23:43.042Z,63.41
2019-02-18T21:26:15.593Z,63.27
2019-02-18T21:28:47.243Z,63.07
2019-02-18T21:31:18.800Z,63.48
2019-02-18T21:33:50.518Z,63.76
2019-02-18T21:36:22.238Z,63.97
2019-02-18T21:38:54.377Z,63.97
2019-02-18T21:41:26.134Z,64.27
2019-02-18T21:43:57.687Z,64.37
2019-02-18T21:46:29.424Z,64.31
2019-02-18T21:49:00.987Z,64.38
2019-02-18T21:51:32.880Z,64.62
2019-02-18T21:54:04.424Z,64.85
2019-02-18T21:56:35.957Z,65.00
2019-02-18T21:59:07.501Z,64.81
2019-02-18T22:01:39.513Z,64.48
2019-02-18T22:04:11.404Z,64.16
2019-02-18T22:06:43.005Z,64.29
2019-02-18T22:09:14.637Z,64.12
2019-02-18T22:11:46.184Z,63.80
2019-02-18T22:14:17.859Z,64.05
2019-02-18T22:16:51.195Z,64.29
2019-02-18T22:19:22.880Z,64.23
2019-02-18T22:21:54.422Z,64.31
2019-02-18T22:24:25.970Z,64.28
2019-02-18T22:26:57.643Z,64.35
2019-02-18T22:29:30.230Z,64.43
2019-02-18T22:32:02.404Z,64.43
2019-02-18T22:34:33.952Z,64.70
2019-02-18T22:37:05.537Z,64.76
2019-02-18T22:39:37.075Z,64.71
2019-02-18T22:42:08.764Z,64.69
2019-02-18T22:44:42.104Z,64.68
2019-02-18T22:47:14.283Z,64.65
2019-02-18T22:49:46.889Z,64.75
2019-02-18T22:52:18.408Z,64.67
2019-02-18T22:54:50.032Z,64.40
2019-02-18T22:57:21.683Z,64.00
2019-02-18T22:59:53.334Z,63.97
2019-02-18T23:02:25.442Z,64.07
2019-02-18T23:04:57.043Z,64.29
2019-02-18T23:07:28.735Z,64.33
2019-02-18T23:10:00.278Z,64.55
2019-02-18T23:12:33.067Z,64.64
2019-02-18T23:15:05.609Z,64.90
2019-02-18T23:17:37.726Z,64.64
2019-02-18T23:20:09.318Z,64.79
2019-02-18T23:22:40.923Z,64.83
2019-02-18T23:25:12.589Z,64.78
2019-02-18T23:27:44.213Z,64.71
2019-02-18T23:30:15.830Z,64.91
2019-02-18T23:32:47.372Z,64.89
2019-02-18T23:35:19.727Z,64.90
2019-02-18T23:37:51.411Z,64.55
2019-02-18T23:40:23.029Z,64.71
2019-02-18T23:42:54.648Z,64.66
2019-02-18T23:45:26.195Z,65.14
2019-02-18T23:47:58.922Z,65.20
2019-02-18T23:50:31.150Z,64.95
2019-02-18T23:53:02.696Z,64.89
2019-02-18T23:55:34.219Z,64.91
2019-02-18T23:58:05.792Z,64.83
